Time;durP1;ratioP1;P1;durP2;ratioP2;P2;SDS_P1;SDS_P2;PMS_P1;PMS_P2;Temp;Humidity;BMP_temperature;BMP_pressure;BME280_temperature;BME280_humidity;BME280_pressure;Samples;Min_cycle;Max_cycle;Signal;HPM_P1;HPM_P2
2021/01/30 00:00:12;;;;;;;26.45;17.75;;;;;;;4.14;74.49;93092.41;4137770;28;20050;-85
2021/01/30 00:02:13;;;;;;;27.00;18.25;;;;;;;4.13;74.79;93089.03;4140983;28;20058;-85
2021/01/30 00:04:15;;;;;;;30.50;18.70;;;;;;;4.14;74.99;93088.03;4133237;28;20076;-85
2021/01/30 00:06:16;;;;;;;33.15;18.85;;;;;;;4.16;75.62;93095.66;4133100;28;20101;-84
2021/01/30 00:08:17;;;;;;;28.95;18.17;;;;;;;4.10;75.40;93092.72;4146240;28;20149;-83
2021/01/30 00:10:20;;;;;;;31.17;19.50;;;;;;;4.12;75.46;93087.38;4130279;28;20052;-82
2021/01/30 00:12:21;;;;;;;31.13;19.40;;;;;;;4.12;75.94;93084.78;4140658;28;20403;-83
2021/01/30 00:14:30;;;;;;;30.15;20.02;;;;;;;4.13;75.78;93095.97;4132654;28;20385;-84
2021/01/30 00:16:31;;;;;;;32.88;20.88;;;;;;;4.13;75.69;93095.97;4144482;28;20049;-83
2021/01/30 00:18:33;;;;;;;28.73;19.35;;;;;;;4.09;75.45;93085.13;4115422;28;20137;-84
2021/01/30 00:20:36;;;;;;;31.75;20.42;;;;;;;4.06;75.99;93082.84;4132500;28;20054;-86
2021/01/30 00:22:38;;;;;;;35.38;20.55;;;;;;;4.06;76.32;93082.84;4132226;28;20526;-84
2021/01/30 00:24:42;;;;;;;30.15;20.00;;;;;;;4.02;76.22;93074.59;4114709;28;20054;-83
2021/01/30 00:26:49;;;;;;;28.85;20.55;;;;;;;4.05;76.70;93071.66;4127621;28;20105;-84
2021/01/30 00:28:50;;;;;;;33.40;22.33;;;;;;;4.06;76.60;93073.28;4117218;28;20420;-82
2021/01/30 00:31:00;;;;;;;31.42;21.15;;;;;;;4.01;76.50;93074.75;4131883;28;20137;-83
2021/01/30 00:33:02;;;;;;;35.05;21.50;;;;;;;4.00;76.65;93070.50;4125880;28;20054;-84
2021/01/30 00:35:04;;;;;;;33.50;22.67;;;;;;;4.00;77.07;93055.81;4126770;28;20495;-83
2021/01/30 00:37:15;;;;;;;32.15;21.10;;;;;;;4.00;77.16;93058.41;4133499;28;20062;-84
2021/01/30 00:39:17;;;;;;;32.55;21.52;;;;;;;4.01;77.27;93046.25;4146352;28;20061;-86
2021/01/30 00:41:18;;;;;;;35.85;22.20;;;;;;;4.00;77.07;93047.19;4135434;28;20066;-85
2021/01/30 00:43:19;;;;;;;34.65;21.83;;;;;;;3.98;77.58;93042.19;4134649;28;20058;-83
2021/01/30 00:45:22;;;;;;;31.85;21.13;;;;;;;3.94;77.36;93038.31;4133033;28;20058;-83
2021/01/30 00:47:24;;;;;;;32.00;21.38;;;;;;;3.82;77.59;93026.59;4132975;28;20043;-83
2021/01/30 00:49:26;;;;;;;34.20;23.35;;;;;;;3.77;78.12;93023.69;4138684;28;20049;-84
2021/01/30 00:51:28;;;;;;;31.80;22.88;;;;;;;3.81;78.09;93025.00;4127207;28;20050;-83
2021/01/30 00:53:29;;;;;;;32.85;22.67;;;;;;;3.79;77.94;93017.38;4127348;28;20054;-83
2021/01/30 00:55:30;;;;;;;36.15;21.00;;;;;;;3.83;77.53;93015.25;4145022;28;20123;-83
2021/01/30 00:57:31;;;;;;;33.80;22.58;;;;;;;3.87;77.94;93006.22;4142061;28;20050;-81
2021/01/30 00:59:33;;;;;;;37.10;22.35;;;;;;;3.89;77.99;93004.28;4141535;28;20078;-85
2021/01/30 01:01:38;;;;;;;36.78;22.63;;;;;;;3.89;77.94;92997.34;4116718;28;20047;-84
2021/01/30 01:03:40;;;;;;;34.95;21.33;;;;;;;3.87;77.95;93001.84;4133377;28;20061;-84
2021/01/30 01:05:41;;;;;;;29.27;19.75;;;;;;;3.89;77.92;92994.75;4133776;28;20077;-83
2021/01/30 01:07:43;;;;;;;31.20;19.58;;;;;;;3.87;78.05;92988.06;4145698;28;20438;-85
2021/01/30 01:09:45;;;;;;;29.98;19.48;;;;;;;3.89;78.12;92986.13;4136208;28;20173;-83
2021/01/30 01:11:49;;;;;;;26.50;19.00;;;;;;;3.92;77.84;92988.41;4136233;28;20051;-85
2021/01/30 01:13:50;;;;;;;29.65;18.27;;;;;;;3.92;77.67;92983.25;4142139;28;20053;-84
2021/01/30 01:15:52;;;;;;;25.77;18.38;;;;;;;3.91;77.84;92968.66;4133016;28;20109;-82
2021/01/30 01:17:53;;;;;;;26.52;17.83;;;;;;;3.88;77.68;92969.00;4145839;28;20050;-84
2021/01/30 01:19:55;;;;;;;27.77;18.63;;;;;;;3.87;77.74;92968.19;4153837;28;20092;-84
2021/01/30 01:21:56;;;;;;;28.73;19.15;;;;;;;3.80;78.25;92962.00;4147377;28;20055;-83
2021/01/30 01:23:58;;;;;;;27.48;19.60;;;;;;;3.80;78.23;92958.63;4147781;28;20085;-83
2021/01/30 01:25:59;;;;;;;31.13;20.75;;;;;;;3.75;78.53;92958.28;4129824;28;20070;-81
2021/01/30 01:28:00;;;;;;;29.73;20.90;;;;;;;3.75;78.37;92963.47;4135693;28;20137;-83
2021/01/30 01:30:03;;;;;;;29.85;20.55;;;;;;;3.74;78.72;92959.25;4141596;28;20054;-84
2021/01/30 01:32:05;;;;;;;37.25;23.38;;;;;;;3.65;79.39;92941.09;4154434;28;20050;-85
2021/01/30 01:34:06;;;;;;;34.90;24.55;;;;;;;3.60;79.39;92945.16;4151312;28;20104;-83
2021/01/30 01:36:08;;;;;;;37.03;25.42;;;;;;;3.58;79.49;92934.16;4143691;28;20050;-83
2021/01/30 01:38:09;;;;;;;37.72;24.50;;;;;;;3.63;79.42;92930.09;4133515;28;20058;-82
2021/01/30 01:40:13;;;;;;;36.78;26.23;;;;;;;3.63;79.26;92927.50;4134211;28;20054;-84
2021/01/30 01:42:23;;;;;;;40.85;25.90;;;;;;;3.65;79.44;92928.16;4132801;28;20096;-83
2021/01/30 01:44:24;;;;;;;40.50;27.77;;;;;;;3.67;78.90;92933.19;4133375;28;20042;-83
2021/01/30 01:46:36;;;;;;;40.58;26.02;;;;;;;3.64;79.22;92921.38;4133529;28;20050;-83
2021/01/30 01:48:42;;;;;;;39.50;27.35;;;;;;;3.59;79.26;92913.28;4132858;28;20070;-85
2021/01/30 01:50:46;;;;;;;41.38;28.48;;;;;;;3.54;79.70;92906.97;4143044;28;20064;-83
2021/01/30 01:52:47;;;;;;;42.67;29.48;;;;;;;3.40;79.83;92892.84;4135120;28;20056;-84
2021/01/30 01:54:50;;;;;;;49.70;32.40;;;;;;;3.16;80.64;92894.47;4139857;28;20089;-82
2021/01/30 01:56:55;;;;;;;55.05;32.97;;;;;;;2.90;81.89;92891.94;4135740;28;20042;-83
2021/01/30 01:59:02;;;;;;;48.00;34.63;;;;;;;2.95;82.14;92902.66;4132089;28;20053;-83
2021/01/30 02:01:03;;;;;;;52.13;34.95;;;;;;;2.93;81.88;92894.22;4137662;28;20169;-84
2021/01/30 02:03:06;;;;;;;56.20;34.78;;;;;;;2.93;82.16;92886.47;4139882;28;20101;-84
2021/01/30 02:05:37;;;;;;;55.20;34.80;;;;;;;2.92;82.38;92886.63;4132168;28;20101;-83
2021/01/30 02:07:40;;;;;;;50.28;33.50;;;;;;;2.97;82.13;92884.38;4108321;28;20046;-85
2021/01/30 02:09:42;;;;;;;57.58;33.78;;;;;;;2.90;82.04;92870.44;4117971;28;20053;-82
2021/01/30 02:12:07;;;;;;;55.72;33.78;;;;;;;2.98;82.00;92863.53;4125307;28;20506;-83
2021/01/30 02:14:10;;;;;;;47.10;31.63;;;;;;;3.02;81.89;92862.25;4147118;28;20046;-84
2021/01/30 02:16:27;;;;;;;57.75;33.75;;;;;;;3.13;81.59;92871.47;4145486;28;20042;-84
2021/01/30 02:18:34;;;;;;;45.55;32.03;;;;;;;3.24;81.17;92860.00;4126942;28;20122;-83
2021/01/30 02:21:13;;;;;;;43.15;29.50;;;;;;;3.26;80.58;92858.88;4132835;28;20138;-83
2021/01/30 02:23:40;;;;;;;44.75;30.08;;;;;;;3.34;80.56;92852.91;4129450;28;20045;-86
2021/01/30 02:26:00;;;;;;;46.67;29.80;;;;;;;3.37;80.04;92856.94;4135699;28;20054;-84
2021/01/30 02:28:13;;;;;;;46.30;29.35;;;;;;;3.36;79.86;92853.56;4120217;28;20088;-82
2021/01/30 02:30:51;;;;;;;48.35;29.50;;;;;;;3.43;79.46;92861.50;4137627;28;20141;-83
2021/01/30 02:33:25;;;;;;;47.75;30.88;;;;;;;3.28;79.78;92854.34;4138300;28;20042;-83
2021/01/30 02:35:44;;;;;;;45.50;29.05;;;;;;;3.22;79.95;92859.34;4117826;28;20102;-82
2021/01/30 02:37:55;;;;;;;50.42;33.97;;;;;;;2.85;81.04;92868.34;4118903;28;20405;-82
2021/01/30 02:40:04;;;;;;;56.88;36.08;;;;;;;2.31;84.26;92863.44;4130484;28;20061;-84
2021/01/30 02:42:18;;;;;;;56.58;37.80;;;;;;;2.31;84.01;92866.03;4128202;28;20451;-85
2021/01/30 02:44:20;;;;;;;58.25;38.50;;;;;;;2.42;84.20;92867.53;4131474;28;20058;-83
2021/01/30 02:46:26;;;;;;;69.30;42.50;;;;;;;2.43;83.96;92867.41;4133371;28;20053;-84
2021/01/30 02:48:31;;;;;;;70.85;43.47;;;;;;;2.36;83.92;92863.78;4125820;28;20126;-84
2021/01/30 02:50:53;;;;;;;67.43;43.78;;;;;;;2.36;84.29;92870.75;4132141;28;20057;-82
2021/01/30 02:52:57;;;;;;;66.25;40.05;;;;;;;2.41;84.02;92866.75;4131802;28;20057;-84
2021/01/30 02:55:00;;;;;;;70.60;44.63;;;;;;;2.11;85.19;92872.38;4130987;28;20451;-83
2021/01/30 02:57:07;;;;;;;73.03;46.83;;;;;;;1.95;86.32;92878.25;4132153;28;20057;-82
2021/01/30 02:59:18;;;;;;;85.28;52.60;;;;;;;1.82;86.66;92878.66;4131323;28;20054;-83
2021/01/30 03:01:19;;;;;;;99.65;56.88;;;;;;;1.73;87.73;92882.16;4130486;28;20596;-84
2021/01/30 03:03:21;;;;;;;92.95;58.22;;;;;;;1.67;87.32;92882.75;4115064;28;20497;-85
2021/01/30 03:05:22;;;;;;;87.65;54.05;;;;;;;1.82;87.33;92886.41;4132472;28;20077;-83
2021/01/30 03:07:41;;;;;;;83.47;53.15;;;;;;;2.10;87.10;92886.28;4141099;28;20128;-84
2021/01/30 03:10:00;;;;;;;89.63;54.47;;;;;;;1.96;86.30;92885.88;4136010;28;20941;-83
2021/01/30 03:12:23;;;;;;;84.97;52.55;;;;;;;2.14;86.10;92890.16;4132854;28;20077;-82
2021/01/30 03:14:26;;;;;;;88.60;52.30;;;;;;;2.23;85.38;92889.25;4131933;28;20054;-83
2021/01/30 03:16:30;;;;;;;84.60;52.03;;;;;;;2.38;84.95;92889.47;4130841;28;20050;-83
2021/01/30 03:18:33;;;;;;;80.78;48.88;;;;;;;2.37;83.93;92888.69;4123991;28;20054;-84
2021/01/30 03:20:38;;;;;;;81.32;50.28;;;;;;;2.38;83.50;92887.69;4120456;28;20136;-84
2021/01/30 03:22:40;;;;;;;81.80;48.83;;;;;;;2.25;83.50;92882.16;4123719;28;20070;-84
2021/01/30 03:24:46;;;;;;;84.20;48.85;;;;;;;2.17;83.75;92884.69;4116156;28;20491;-82
2021/01/30 03:26:48;;;;;;;78.40;49.67;;;;;;;2.18;83.81;92888.91;4128615;28;20121;-85
2021/01/30 03:28:49;;;;;;;84.38;50.42;;;;;;;2.15;83.67;92884.03;4115351;28;20919;-84
2021/01/30 03:30:50;;;;;;;81.75;50.72;;;;;;;2.18;83.74;92891.50;4120260;28;20515;-84
2021/01/30 03:32:52;;;;;;;78.65;49.90;;;;;;;2.19;83.11;92893.09;4133768;28;20054;-82
2021/01/30 03:34:55;;;;;;;73.60;48.13;;;;;;;2.18;82.96;92892.28;4131574;28;20078;-84
2021/01/30 03:36:56;;;;;;;69.80;45.80;;;;;;;2.21;82.73;92891.16;4129588;28;20058;-71
2021/01/30 03:38:58;;;;;;;74.05;48.55;;;;;;;2.25;82.46;92897.66;4127518;28;20046;-69
2021/01/30 03:40:59;;;;;;;74.07;45.97;;;;;;;2.28;82.24;92901.69;4126965;28;20057;-71
2021/01/30 03:43:01;;;;;;;76.20;44.38;;;;;;;2.26;81.82;92894.13;4126979;28;20137;-69
2021/01/30 03:45:08;;;;;;;73.47;45.00;;;;;;;2.30;81.71;92903.16;4114859;28;20082;-70
2021/01/30 03:47:09;;;;;;;72.03;45.47;;;;;;;2.34;81.30;92899.31;4113952;28;20113;-70
2021/01/30 03:49:11;;;;;;;68.50;45.58;;;;;;;2.40;80.83;92903.06;4112555;28;20054;-70
2021/01/30 03:51:12;;;;;;;69.93;45.20;;;;;;;2.42;80.89;92903.72;4116215;28;20531;-70
2021/01/30 03:53:13;;;;;;;71.60;45.33;;;;;;;2.48;80.60;92903.09;4121992;28;20515;-70
2021/01/30 03:55:15;;;;;;;71.35;45.35;;;;;;;2.53;80.50;92900.84;4112943;28;20432;-71
2021/01/30 03:57:17;;;;;;;71.18;45.53;;;;;;;2.54;79.90;92901.66;4127630;28;20097;-71
2021/01/30 03:59:19;;;;;;;70.45;45.67;;;;;;;2.56;79.83;92905.75;4120745;28;20061;-69
2021/01/30 04:01:21;;;;;;;73.63;45.33;;;;;;;2.55;79.73;92908.47;4100571;28;20165;-70
2021/01/30 04:03:22;;;;;;;65.47;43.17;;;;;;;2.57;79.30;92899.59;4124751;28;20490;-70
2021/01/30 04:05:26;;;;;;;72.18;45.38;;;;;;;2.34;79.14;92901.09;4127695;28;20058;-69
2021/01/30 04:07:27;;;;;;;64.43;44.13;;;;;;;2.33;79.98;92908.03;4134271;28;20049;-70
2021/01/30 04:09:28;;;;;;;64.60;43.22;;;;;;;2.33;80.21;92907.25;4129992;28;20091;-71
2021/01/30 04:11:31;;;;;;;63.03;42.55;;;;;;;2.38;79.84;92900.63;4122866;28;20059;-70
2021/01/30 04:13:32;;;;;;;65.97;43.25;;;;;;;2.37;79.56;92900.81;4117363;28;20050;-71
2021/01/30 04:15:36;;;;;;;65.70;43.20;;;;;;;2.39;79.54;92891.13;4126791;28;20470;-70
2021/01/30 04:17:38;;;;;;;66.75;43.67;;;;;;;2.39;79.40;92893.72;4115152;28;20665;-71
2021/01/30 04:19:39;;;;;;;66.75;43.28;;;;;;;2.41;79.55;92892.59;4122513;28;20054;-72
2021/01/30 04:21:40;;;;;;;59.90;41.58;;;;;;;2.43;79.31;92889.81;4132535;28;20046;-72
2021/01/30 04:23:46;;;;;;;61.75;40.97;;;;;;;2.46;79.77;92895.50;4132107;28;20396;-70
2021/01/30 04:25:48;;;;;;;60.25;40.05;;;;;;;2.49;79.30;92889.22;4130623;28;20475;-68
2021/01/30 04:27:49;;;;;;;58.78;40.05;;;;;;;2.52;78.94;92888.09;4131247;28;20054;-70
2021/01/30 04:29:51;;;;;;;57.50;38.67;;;;;;;2.55;79.09;92895.53;4132155;28;20050;-71
2021/01/30 04:31:54;;;;;;;61.92;39.97;;;;;;;2.58;79.15;92883.13;4128908;28;20054;-69
2021/01/30 04:33:55;;;;;;;54.30;37.97;;;;;;;2.54;78.97;92888.75;4131309;28;20054;-71
2021/01/30 04:35:57;;;;;;;56.05;37.42;;;;;;;2.46;78.83;92894.69;4130470;28;20396;-70
2021/01/30 04:37:58;;;;;;;54.42;37.22;;;;;;;2.49;79.22;92885.81;4132474;28;20082;-71
2021/01/30 04:40:01;;;;;;;49.83;35.28;;;;;;;2.50;79.13;92895.22;4120407;28;20114;-71
2021/01/30 04:42:10;;;;;;;46.47;32.70;;;;;;;2.45;79.13;92899.06;4115224;28;20059;-72
2021/01/30 04:44:18;;;;;;;48.70;34.10;;;;;;;2.50;78.97;92890.84;4114950;28;20058;-71
2021/01/30 04:47:00;;;;;;;45.80;32.67;;;;;;;2.51;78.93;92899.41;4113191;28;20468;-71
2021/01/30 04:49:21;;;;;;;52.15;34.70;;;;;;;2.46;78.83;92894.69;4114777;28;20097;-70
2021/01/30 04:51:38;;;;;;;47.80;32.38;;;;;;;2.45;79.11;92901.66;4130734;28;20053;-70
2021/01/30 04:53:45;;;;;;;47.10;32.28;;;;;;;2.45;78.54;92901.66;4125125;28;20042;-70
2021/01/30 04:56:00;;;;;;;51.35;34.17;;;;;;;2.40;78.75;92903.06;4126232;28;20063;-71
2021/01/30 04:58:04;;;;;;;47.03;33.42;;;;;;;2.34;78.95;92907.06;4126582;28;20496;-71
2021/01/30 05:00:12;;;;;;;52.05;35.50;;;;;;;2.38;79.09;92910.16;4126233;28;20075;-71
2021/01/30 05:02:42;;;;;;;52.10;35.33;;;;;;;2.14;79.32;92916.81;4126410;28;20055;-70
2021/01/30 05:04:49;;;;;;;50.22;35.80;;;;;;;1.45;82.13;92931.28;4102867;28;20129;-70
2021/01/30 05:06:56;;;;;;;59.45;39.60;;;;;;;0.85;84.71;92925.84;4118693;28;20047;-70
2021/01/30 05:09:11;;;;;;;65.28;40.90;;;;;;;0.63;86.56;92930.44;4137498;28;20041;-70
2021/01/30 05:11:16;;;;;;;66.70;44.03;;;;;;;0.58;87.21;92924.88;4121961;28;20061;-71
2021/01/30 05:13:33;;;;;;;71.22;42.25;;;;;;;0.82;87.03;92930.34;4116070;28;20046;-72
2021/01/30 05:15:45;;;;;;;60.95;41.42;;;;;;;1.08;86.33;92939.16;4125504;28;20050;-70
2021/01/30 05:18:02;;;;;;;60.03;39.08;;;;;;;1.16;85.26;92942.63;4113736;28;20047;-71
2021/01/30 05:20:07;;;;;;;59.17;37.75;;;;;;;1.30;84.72;92932.75;4130505;28;20547;-70
2021/01/30 05:22:11;;;;;;;58.28;36.28;;;;;;;1.41;84.56;92940.28;4126601;28;20248;-70
2021/01/30 05:24:15;;;;;;;55.60;35.20;;;;;;;1.35;83.79;92940.88;4114681;28;20161;-70
2021/01/30 05:26:40;;;;;;;57.47;35.53;;;;;;;1.47;83.68;92949.22;4125510;28;20109;-71
2021/01/30 05:28:57;;;;;;;48.42;31.63;;;;;;;1.55;83.13;92951.84;4120074;28;20055;-69
2021/01/30 05:31:24;;;;;;;50.88;33.78;;;;;;;1.67;83.54;92950.66;4111860;28;20089;-70
2021/01/30 05:33:45;;;;;;;47.25;32.17;;;;;;;1.78;82.66;92952.22;4120265;28;20082;-71
2021/01/30 05:36:16;;;;;;;42.63;29.52;;;;;;;1.87;81.81;92953.09;4130884;28;20058;-71
2021/01/30 05:38:57;;;;;;;46.50;31.10;;;;;;;1.67;82.17;92960.19;4121225;28;20062;-70
2021/01/30 05:41:10;;;;;;;48.35;31.30;;;;;;;1.72;82.11;92957.97;4112190;28;20137;-70
2021/01/30 05:43:19;;;;;;;44.83;30.10;;;;;;;1.76;82.47;92959.28;4104638;28;20416;-68
2021/01/30 05:45:44;;;;;;;46.58;31.40;;;;;;;1.81;82.13;92962.25;4120510;28;20290;-69
2021/01/30 05:47:49;;;;;;;43.33;29.58;;;;;;;1.87;81.83;92966.81;4118887;28;20066;-71
2021/01/30 05:50:03;;;;;;;39.45;28.17;;;;;;;1.93;81.57;92971.38;4129493;28;20128;-71
2021/01/30 05:52:09;;;;;;;43.08;28.92;;;;;;;1.96;81.12;92965.13;4123194;28;20109;-71
2021/01/30 05:54:10;;;;;;;42.75;27.60;;;;;;;1.96;80.79;92972.88;4127646;28;20164;-71
2021/01/30 05:56:12;;;;;;;39.10;27.52;;;;;;;1.94;81.39;92977.38;4129341;28;20050;-71
2021/01/30 05:58:15;;;;;;;42.28;27.55;;;;;;;1.92;80.97;92984.44;4131386;28;20105;-70
2021/01/30 06:00:20;;;;;;;37.25;26.17;;;;;;;1.95;81.29;92986.72;4126046;28;20127;-84
2021/01/30 06:02:24;;;;;;;39.45;27.45;;;;;;;1.90;81.22;92991.53;4122251;28;20047;-86
2021/01/30 06:04:27;;;;;;;39.75;26.23;;;;;;;1.73;81.49;93001.72;4135858;28;20061;-84
2021/01/30 06:06:40;;;;;;;44.10;27.60;;;;;;;1.54;82.03;93010.41;4138902;28;20129;-82
2021/01/30 06:08:54;;;;;;;34.05;24.15;;;;;;;1.55;82.48;93014.63;4133028;28;20054;-83
2021/01/30 06:11:07;;;;;;;32.30;23.95;;;;;;;1.18;83.56;93023.25;4144137;28;20054;-82
2021/01/30 06:13:12;;;;;;;36.03;24.05;;;;;;;0.77;85.71;93027.88;4129464;28;20183;-82
2021/01/30 06:15:16;;;;;;;37.45;23.55;;;;;;;0.59;86.95;93034.75;4140196;28;20050;-84
2021/01/30 06:17:23;;;;;;;35.58;24.15;;;;;;;0.69;87.16;93032.13;4144979;28;20046;-83
2021/01/30 06:19:26;;;;;;;35.70;23.88;;;;;;;0.86;86.56;93038.31;4134179;28;20412;-84
2021/01/30 06:21:27;;;;;;;33.75;23.17;;;;;;;1.04;86.12;93031.47;4132443;28;20050;-85
2021/01/30 06:23:29;;;;;;;29.98;21.52;;;;;;;1.18;85.19;93043.06;4122444;28;20539;-71
2021/01/30 06:25:34;;;;;;;26.00;17.38;;;;;;;1.27;85.00;93038.81;4108272;28;20166;-72
2021/01/30 06:27:39;;;;;;;22.63;15.20;;;;;;;1.18;84.65;93043.91;4129438;28;20519;-70
2021/01/30 06:29:46;;;;;;;23.13;14.55;;;;;;;1.16;84.73;93056.13;4128925;28;20412;-70
2021/01/30 06:31:48;;;;;;;17.50;12.23;;;;;;;1.26;84.83;93057.84;4127963;28;20065;-71
2021/01/30 06:33:56;;;;;;;15.32;10.15;;;;;;;1.41;84.50;93061.56;4121591;28;20058;-71
2021/01/30 06:36:08;;;;;;;12.52;9.27;;;;;;;1.48;83.73;93054.84;4128834;28;20050;-71
2021/01/30 06:38:30;;;;;;;13.20;9.15;;;;;;;1.59;83.40;93065.00;4128123;28;20057;-72
2021/01/30 06:40:37;;;;;;;11.43;8.95;;;;;;;1.66;83.06;93061.81;4108502;28;20054;-71
2021/01/30 06:42:38;;;;;;;13.68;9.73;;;;;;;1.65;83.04;93063.59;4115396;28;20554;-84
2021/01/30 06:44:40;;;;;;;13.40;8.70;;;;;;;1.77;82.68;93064.19;4127389;28;20415;-85
2021/01/30 06:47:03;;;;;;;13.00;9.82;;;;;;;1.84;82.67;93060.88;4115103;28;20089;-86
2021/01/30 06:49:16;;;;;;;11.27;8.18;;;;;;;1.92;82.10;93062.72;4130813;28;20085;-85
2021/01/30 06:51:34;;;;;;;11.23;7.73;;;;;;;2.03;81.64;93072.03;4136539;28;20077;-84
2021/01/30 06:53:36;;;;;;;11.23;6.68;;;;;;;2.01;81.71;93072.16;4131876;28;20287;-86
2021/01/30 06:55:37;;;;;;;9.98;6.57;;;;;;;2.02;81.59;93078.97;4137292;28;20589;-83
2021/01/30 06:57:55;;;;;;;10.43;7.10;;;;;;;2.06;81.81;93084.63;4135171;28;20503;-85
2021/01/30 07:00:03;;;;;;;9.65;6.50;;;;;;;2.04;81.59;93079.63;4132829;28;20058;-83
2021/01/30 07:02:14;;;;;;;9.80;7.43;;;;;;;2.15;81.27;93082.94;4134171;28;20089;-85
2021/01/30 07:04:21;;;;;;;8.48;6.40;;;;;;;2.15;80.95;93075.19;4121906;28;20523;-83
2021/01/30 07:06:46;;;;;;;10.10;6.55;;;;;;;2.23;81.17;93083.00;4143260;28;20050;-86
2021/01/30 07:08:55;;;;;;;9.82;7.28;;;;;;;2.24;80.98;93082.88;4129894;28;20054;-86
2021/01/30 07:11:21;;;;;;;9.93;7.15;;;;;;;2.26;80.88;93075.00;4145481;28;20108;-86
2021/01/30 07:13:46;;;;;;;10.82;6.55;;;;;;;2.21;81.32;93083.16;4133743;28;20046;-86
2021/01/30 07:16:23;;;;;;;9.95;6.68;;;;;;;2.22;80.98;93095.13;4134979;28;20494;-85
2021/01/30 07:18:43;;;;;;;9.02;5.72;;;;;;;2.23;81.25;93094.16;4104200;28;20109;-86
2021/01/30 07:20:59;;;;;;;7.90;5.50;;;;;;;2.21;81.51;93106.41;4120851;28;20058;-84
2021/01/30 07:23:06;;;;;;;7.07;4.90;;;;;;;2.29;81.32;93104.88;4135107;28;20054;-84
2021/01/30 07:25:19;;;;;;;7.45;4.90;;;;;;;2.31;81.22;93108.13;4117261;28;20054;-86
2021/01/30 07:27:25;;;;;;;7.75;4.65;;;;;;;2.32;81.28;93107.16;4130705;28;20095;-82
2021/01/30 07:29:46;;;;;;;6.35;4.10;;;;;;;2.34;81.17;93113.78;4134545;28;20062;-86
2021/01/30 07:31:55;;;;;;;6.95;4.18;;;;;;;2.35;81.04;93119.78;4120782;28;20046;-87
2021/01/30 07:34:03;;;;;;;6.32;4.40;;;;;;;2.35;81.11;93122.38;4125094;28;20134;-83
2021/01/30 07:36:30;;;;;;;6.72;4.30;;;;;;;2.42;80.60;93120.81;4129126;28;20045;-86
2021/01/30 07:38:44;;;;;;;8.75;5.15;;;;;;;2.46;80.80;93122.16;4135337;28;20077;-84
2021/01/30 07:41:10;;;;;;;9.77;5.07;;;;;;;2.49;80.46;93131.38;4140079;28;20046;-83
2021/01/30 07:43:17;;;;;;;9.88;5.32;;;;;;;2.57;80.61;93129.66;4137960;28;20531;-84
2021/01/30 07:45:27;;;;;;;7.30;5.05;;;;;;;2.58;80.40;93140.81;4139186;28;20050;-86
2021/01/30 07:47:54;;;;;;;8.13;5.40;;;;;;;2.55;80.40;93143.72;4130648;28;20046;-83
2021/01/30 07:50:05;;;;;;;9.73;4.95;;;;;;;2.64;80.11;93140.22;4127745;28;20056;-84
2021/01/30 07:52:10;;;;;;;7.03;5.07;;;;;;;2.68;80.19;93141.53;4132754;28;20061;-85
2021/01/30 07:54:12;;;;;;;8.23;5.28;;;;;;;2.73;80.02;93139.34;4111411;28;20082;-83
2021/01/30 07:56:13;;;;;;;6.95;4.57;;;;;;;2.74;80.33;93148.72;4132912;28;20054;-86
2021/01/30 07:58:37;;;;;;;6.53;4.10;;;;;;;2.77;80.17;93145.81;4134009;28;20065;-87
2021/01/30 08:00:56;;;;;;;5.15;3.05;;;;;;;2.73;80.12;93154.03;4107611;28;20055;-86
2021/01/30 08:03:16;;;;;;;4.18;2.72;;;;;;;2.63;80.41;93151.53;4133008;28;20133;-84
2021/01/30 08:05:34;;;;;;;6.90;3.10;;;;;;;2.74;80.26;93158.25;4132990;28;20165;-71
2021/01/30 08:07:53;;;;;;;4.43;2.70;;;;;;;2.78;80.34;93152.63;4128286;28;20484;-71
2021/01/30 08:10:10;;;;;;;5.03;2.97;;;;;;;2.81;80.28;93151.50;4110753;28;20051;-72
2021/01/30 08:12:21;;;;;;;5.20;3.00;;;;;;;2.85;80.34;93163.19;4126537;28;20051;-72
2021/01/30 08:14:33;;;;;;;5.68;2.80;;;;;;;2.93;79.96;93176.19;4119070;28;20413;-72
2021/01/30 08:16:49;;;;;;;4.90;2.33;;;;;;;3.06;79.35;93171.41;4121446;28;20050;-72
2021/01/30 08:18:51;;;;;;;3.30;2.40;;;;;;;3.10;79.42;93182.28;4114911;28;20098;-70
2021/01/30 08:20:58;;;;;;;3.85;2.58;;;;;;;3.04;79.07;93188.06;4125842;28;20048;-71
2021/01/30 08:23:06;;;;;;;4.40;2.95;;;;;;;3.09;79.27;93183.22;4119085;28;20073;-71
2021/01/30 08:25:12;;;;;;;4.07;2.80;;;;;;;3.12;78.98;93197.63;4124741;28;20054;-72
2021/01/30 08:27:26;;;;;;;6.10;2.83;;;;;;;3.06;79.22;93193.91;4126868;28;20046;-70
2021/01/30 08:29:34;;;;;;;4.90;2.72;;;;;;;3.06;79.21;93199.06;4127390;28;20046;-70
2021/01/30 08:31:37;;;;;;;6.05;3.53;;;;;;;3.18;78.73;93194.44;4109713;28;20051;-70
2021/01/30 08:34:07;;;;;;;5.05;2.80;;;;;;;3.24;78.73;93205.00;4119464;28;20141;-71
2021/01/30 08:36:41;;;;;;;5.22;3.20;;;;;;;3.12;78.80;93216.59;4126884;28;20516;-70
2021/01/30 08:38:42;;;;;;;4.60;3.00;;;;;;;3.19;79.11;93209.84;4100211;28;20607;-71
2021/01/30 08:40:54;;;;;;;3.72;2.20;;;;;;;3.24;78.88;93217.13;4116805;28;20460;-71
2021/01/30 08:43:01;;;;;;;4.88;2.63;;;;;;;3.27;78.83;93220.25;4115780;28;20080;-71
2021/01/30 08:45:08;;;;;;;3.67;2.50;;;;;;;3.38;78.41;93226.16;4127511;28;20059;-72
2021/01/30 08:47:27;;;;;;;6.35;2.92;;;;;;;3.44;78.06;93230.69;4126749;28;20054;-71
2021/01/30 08:49:30;;;;;;;4.20;2.50;;;;;;;3.44;78.11;93234.13;4116097;28;20081;-71
2021/01/30 08:51:31;;;;;;;4.50;2.92;;;;;;;3.46;78.05;93237.38;4111337;28;20093;-72
2021/01/30 08:53:34;;;;;;;5.05;2.67;;;;;;;3.51;78.15;93231.72;4114937;28;20110;-72
2021/01/30 08:55:44;;;;;;;7.55;3.00;;;;;;;3.52;78.51;93232.53;4127242;28;20060;-71
2021/01/30 08:57:45;;;;;;;3.75;2.50;;;;;;;3.53;78.17;93241.91;4127910;28;20046;-72
2021/01/30 08:59:48;;;;;;;5.20;2.90;;;;;;;3.58;78.34;93244.88;4136844;28;20351;-72
2021/01/30 09:01:50;;;;;;;4.32;2.80;;;;;;;3.56;78.24;93245.03;4132134;28;20444;-73
2021/01/30 09:03:55;;;;;;;5.32;3.20;;;;;;;3.64;78.47;93245.06;4124903;28;20054;-73
2021/01/30 09:05:57;;;;;;;5.70;3.00;;;;;;;3.67;78.18;93251.72;4127294;28;20109;-72
2021/01/30 09:08:22;;;;;;;5.20;3.33;;;;;;;3.75;78.16;93235.44;4131605;28;20046;-71
2021/01/30 09:10:25;;;;;;;4.97;3.35;;;;;;;3.83;77.42;93253.59;4118003;28;20508;-71
2021/01/30 09:12:54;;;;;;;4.72;2.97;;;;;;;3.81;77.46;93260.72;4126366;28;20519;-70
2021/01/30 09:14:55;;;;;;;5.35;3.50;;;;;;;3.81;77.89;93246.00;4102849;28;20081;-73
2021/01/30 09:16:58;;;;;;;4.82;3.20;;;;;;;3.87;77.69;93247.13;4119274;28;20093;-73
2021/01/30 09:19:00;;;;;;;4.70;3.28;;;;;;;3.86;77.54;93248.09;4130437;28;20475;-73
2021/01/30 09:21:20;;;;;;;5.60;3.60;;;;;;;3.89;77.85;93256.41;4126436;28;20368;-72
2021/01/30 09:23:24;;;;;;;6.65;3.58;;;;;;;3.93;78.00;93259.47;4126223;28;20136;-73
2021/01/30 09:25:29;;;;;;;4.47;3.85;;;;;;;4.04;77.36;93269.59;4120201;28;20046;-71
2021/01/30 09:27:36;;;;;;;6.40;4.32;;;;;;;4.06;77.25;93272.81;4144751;28;20056;-86
2021/01/30 09:29:42;;;;;;;8.43;4.43;;;;;;;4.04;77.36;93263.56;4143709;28;20054;-86
2021/01/30 09:31:43;;;;;;;9.18;5.53;;;;;;;4.03;77.23;93274.91;4143820;28;20042;-85
2021/01/30 09:34:07;;;;;;;7.60;5.20;;;;;;;4.05;77.68;93276.38;4144626;28;20057;-84
2021/01/30 09:36:17;;;;;;;11.23;6.73;;;;;;;4.15;77.32;93270.25;4141585;28;20073;-86
2021/01/30 09:38:23;;;;;;;9.10;5.95;;;;;;;4.16;77.68;93266.72;4139501;28;20042;-86
2021/01/30 09:40:28;;;;;;;10.60;6.55;;;;;;;4.30;77.15;93276.47;4138914;28;20062;-86
2021/01/30 09:42:31;;;;;;;13.35;7.68;;;;;;;4.33;77.42;93262.41;4134511;28;20045;-72
2021/01/30 09:44:32;;;;;;;11.55;7.40;;;;;;;4.39;77.13;93248.81;4130996;28;20116;-73
2021/01/30 09:46:37;;;;;;;12.07;7.85;;;;;;;4.51;77.26;93237.19;4111767;28;20055;-72
2021/01/30 09:48:40;;;;;;;12.05;7.43;;;;;;;4.64;76.30;93242.72;4134390;28;20081;-70
2021/01/30 09:50:50;;;;;;;11.73;7.70;;;;;;;4.72;76.42;93241.94;4128881;28;20486;-71
2021/01/30 09:52:55;;;;;;;11.25;7.15;;;;;;;4.82;75.78;93253.00;4125604;28;20523;-74
2021/01/30 09:55:07;;;;;;;10.35;6.97;;;;;;;5.04;74.89;93250.75;4129485;28;20091;-72
2021/01/30 09:57:15;;;;;;;10.00;7.68;;;;;;;5.29;74.85;93248.94;4128506;28;20046;-71
2021/01/30 09:59:22;;;;;;;10.23;7.72;;;;;;;5.52;74.16;93238.72;4121933;28;20057;-73